Concordia, Missouri
Current Conditions -  °F | °C
As of 4:58 AM on Thursday 23 Oct 2014 (Local Time) from KSZL Reporting Station
Broken Clouds Broken Clouds  
Wind Chill: 12°   Ceiling: 4700
Heat Index: 12°   Visibility: 10mi
Dew Point:   Wind: 7mph
Humidity: 80%   Direction: 170°S
Pressure: 30.12"   Gusts: NA
Location:  38.98°N, 93.57°W
Report Text: KSZL 230958Z 17006KT 10SM BKN047 12/09 A3012 RMK AO2A SLP200 T01230090 $
Loading
Personal Weather Stations






























Interactive Weather Map
Tropical Storm Tracking
New forecast layout! Learn more

10-Day Weather Forecast

Advertisements
Track Severe Weather on mobile